Time;durP1;ratioP1;P1;durP2;ratioP2;P2;SDS_P1;SDS_P2;PMS_P1;PMS_P2;Temp;Humidity;BMP_temperature;BMP_pressure;BME280_temperature;BME280_humidity;BME280_pressure;Samples;Min_cycle;Max_cycle;Signal;HPM_P1;HPM_P2
2023/03/05 00:00:01;;;;;;;24.80;14.50;;;;;;;2.00;100.00;151880.84;4992608;28;20460;-89
2023/03/05 00:02:28;;;;;;;29.83;16.43;;;;;;;2.01;100.00;151883.44;5007963;28;20762;-89
2023/03/05 00:04:55;;;;;;;27.37;15.00;;;;;;;2.00;100.00;151879.56;4999346;28;20455;-89
2023/03/05 00:07:22;;;;;;;24.00;13.87;;;;;;;1.99;100.00;151878.25;5040240;28;20462;-90
2023/03/05 00:09:50;;;;;;;23.90;15.07;;;;;;;1.99;100.00;151878.25;5009070;28;20928;-89
2023/03/05 00:12:17;;;;;;;26.60;14.07;;;;;;;2.00;100.00;151880.84;5016619;28;20550;-89
2023/03/05 00:14:45;;;;;;;25.20;15.20;;;;;;;1.99;100.00;151878.25;5023529;28;20549;-90
2023/03/05 00:17:12;;;;;;;25.97;15.67;;;;;;;1.98;100.00;151875.72;5001440;28;20623;-89
2023/03/05 00:19:39;;;;;;;28.23;15.50;;;;;;;1.97;100.00;151871.81;4987654;28;20471;-89
2023/03/05 00:22:06;;;;;;;23.40;14.60;;;;;;;1.97;100.00;151873.13;4993416;28;20448;-89
2023/03/05 00:24:32;;;;;;;25.10;15.80;;;;;;;1.99;100.00;151878.25;4999862;28;20485;-89
2023/03/05 00:26:59;;;;;;;25.50;14.97;;;;;;;1.99;100.00;151876.97;4993325;28;20440;-89
2023/03/05 00:29:26;;;;;;;21.03;14.80;;;;;;;1.97;100.00;151873.13;5024535;28;20496;-90
2023/03/05 00:31:54;;;;;;;25.87;14.13;;;;;;;1.98;100.00;151875.72;4988351;28;20459;-90
2023/03/05 00:34:22;;;;;;;27.27;16.30;;;;;;;1.97;100.00;151873.13;4992008;28;20444;-89
2023/03/05 00:36:52;;;;;;;21.40;13.30;;;;;;;1.96;100.00;151870.53;4997346;28;20544;-90
2023/03/05 00:39:20;;;;;;;19.53;13.30;;;;;;;1.95;100.00;151868.00;4983971;28;20471;-89
2023/03/05 00:41:47;;;;;;;28.07;15.47;;;;;;;1.96;100.00;151869.28;5043827;28;20435;-89
2023/03/05 00:44:14;;;;;;;22.10;13.70;;;;;;;1.96;100.00;151870.53;5023491;28;20533;-89
2023/03/05 00:46:40;;;;;;;25.50;15.07;;;;;;;1.96;100.00;151870.53;5006888;28;20479;-89
2023/03/05 00:49:09;;;;;;;21.87;14.47;;;;;;;1.97;100.00;151873.13;5035309;28;20530;-89
2023/03/05 00:51:36;;;;;;;22.77;15.30;;;;;;;2.01;100.00;151882.13;5009831;28;20455;-89
2023/03/05 00:54:03;;;;;;;25.93;15.00;;;;;;;2.02;100.00;151885.97;4993732;28;20436;-89
2023/03/05 00:56:30;;;;;;;24.90;15.00;;;;;;;2.01;100.00;151883.44;5027798;28;20447;-90
2023/03/05 00:58:56;;;;;;;19.50;14.17;;;;;;;1.99;100.00;151878.25;4985689;28;20471;-89
2023/03/05 01:01:24;;;;;;;27.60;15.97;;;;;;;1.99;100.00;151878.25;5009030;28;20892;-89
2023/03/05 01:03:51;;;;;;;25.57;14.30;;;;;;;1.99;100.00;151878.25;5009894;28;20455;-89
2023/03/05 01:06:19;;;;;;;22.97;14.63;;;;;;;1.99;100.00;151876.97;5005817;28;20498;-89
2023/03/05 01:08:46;;;;;;;22.30;14.70;;;;;;;2.00;100.00;151879.56;4981696;28;20448;-89
2023/03/05 01:11:13;;;;;;;23.23;15.40;;;;;;;2.00;100.00;151879.56;5025682;28;20816;-90
2023/03/05 01:13:40;;;;;;;20.80;13.77;;;;;;;1.99;100.00;151876.97;4994948;28;20470;-89
2023/03/05 01:16:08;;;;;;;23.20;14.73;;;;;;;1.99;100.00;151876.97;5027879;28;20816;-89
2023/03/05 01:18:34;;;;;;;19.87;13.97;;;;;;;1.99;100.00;151878.25;4992935;28;20568;-90
2023/03/05 01:21:01;;;;;;;25.70;14.40;;;;;;;2.00;100.00;151880.84;4992337;28;20816;-90
2023/03/05 01:23:29;;;;;;;24.17;14.87;;;;;;;1.99;100.00;151878.25;5007818;28;20452;-90
2023/03/05 01:25:57;;;;;;;24.27;14.60;;;;;;;2.01;100.00;151883.44;5004304;28;20821;-89
2023/03/05 01:28:24;;;;;;;25.20;14.90;;;;;;;2.01;100.00;151883.44;5009736;28;20490;-89
2023/03/05 01:30:51;;;;;;;23.53;14.47;;;;;;;2.04;100.00;151891.09;5016594;28;20788;-89
2023/03/05 01:33:18;;;;;;;27.20;15.50;;;;;;;2.00;100.00;151880.84;5025651;28;20516;-89
2023/03/05 01:35:46;;;;;;;29.73;14.80;;;;;;;2.02;100.00;151885.97;5014144;28;20489;-90
2023/03/05 01:38:13;;;;;;;24.70;15.10;;;;;;;1.99;100.00;151878.25;5001844;28;20835;-89
2023/03/05 01:40:41;;;;;;;24.90;15.27;;;;;;;1.98;100.00;151875.72;5011564;28;20796;-90
2023/03/05 01:43:22;;;;;;;22.10;14.50;;;;;;;1.99;100.00;151878.25;5010666;28;20570;-89
2023/03/05 01:46:33;;;;;;;25.13;14.77;;;;;;;1.98;100.00;151875.72;5007927;28;20475;-90
2023/03/05 01:49:09;;;;;;;23.90;15.27;;;;;;;1.97;100.00;151873.13;5023985;28;20542;-89
2023/03/05 01:51:40;;;;;;;21.47;14.60;;;;;;;1.98;100.00;151875.72;5027103;28;20459;-89
2023/03/05 01:54:07;;;;;;;24.03;14.60;;;;;;;1.98;100.00;151874.41;5007924;28;20495;-89
2023/03/05 01:56:36;;;;;;;24.33;14.93;;;;;;;2.00;100.00;151880.84;5007148;28;20455;-90
2023/03/05 01:59:03;;;;;;;25.77;14.70;;;;;;;1.99;100.00;151878.25;5000871;28;20493;-90
2023/03/05 02:01:32;;;;;;;23.80;14.90;;;;;;;1.98;100.00;151874.41;5036800;28;20474;-89
2023/03/05 02:04:00;;;;;;;25.70;13.93;;;;;;;1.98;100.00;151875.72;5023323;28;20454;-90
2023/03/05 02:06:27;;;;;;;23.73;13.57;;;;;;;1.98;100.00;151875.72;4990933;28;20459;-89
2023/03/05 02:08:54;;;;;;;23.20;14.00;;;;;;;1.99;100.00;151876.97;5000402;28;20489;-89
2023/03/05 02:11:21;;;;;;;19.47;13.30;;;;;;;1.99;100.00;151876.97;5022350;28;20462;-90
2023/03/05 02:13:52;;;;;;;22.53;13.37;;;;;;;1.97;100.00;151873.13;4993971;28;20440;-90
2023/03/05 02:16:19;;;;;;;24.70;16.07;;;;;;;1.98;100.00;151874.41;4986111;28;20859;-90
2023/03/05 02:18:46;;;;;;;21.00;13.67;;;;;;;1.97;100.00;151871.81;5002993;28;20464;-89
2023/03/05 02:21:14;;;;;;;20.90;13.80;;;;;;;1.97;100.00;151871.81;4987165;28;20454;-89
2023/03/05 02:23:41;;;;;;;22.97;13.73;;;;;;;1.97;100.00;151873.13;4981126;28;20441;-89
2023/03/05 02:26:09;;;;;;;26.57;15.03;;;;;;;2.00;100.00;151880.84;4992506;28;20983;-89
2023/03/05 02:28:40;;;;;;;25.63;14.23;;;;;;;1.98;100.00;151875.72;4979577;28;20464;-88
2023/03/05 02:31:13;;;;;;;25.30;14.47;;;;;;;2.01;100.00;151883.44;5040083;28;20510;-89
2023/03/05 02:33:40;;;;;;;24.50;14.73;;;;;;;2.02;100.00;151885.97;5004973;28;20502;-90
2023/03/05 02:36:08;;;;;;;27.10;13.57;;;;;;;2.04;100.00;151889.84;5008602;28;20509;-89
2023/03/05 02:38:37;;;;;;;24.50;13.80;;;;;;;2.05;100.00;151893.69;5011605;28;20502;-89
2023/03/05 02:41:04;;;;;;;21.30;13.33;;;;;;;2.04;100.00;151891.09;5024066;28;20487;-89
2023/03/05 02:43:31;;;;;;;19.23;11.77;;;;;;;2.06;100.00;151896.28;5006772;28;20554;-89
2023/03/05 02:45:58;;;;;;;17.53;11.37;;;;;;;2.09;100.00;151902.72;5024233;28;20495;-89
2023/03/05 02:48:24;;;;;;;21.00;12.30;;;;;;;2.10;100.00;151906.53;5019961;28;20465;-89
2023/03/05 02:50:51;;;;;;;16.60;11.27;;;;;;;2.10;100.00;151905.25;4989339;28;20788;-87
2023/03/05 02:53:18;;;;;;;19.40;11.80;;;;;;;2.11;100.00;151909.13;5011606;28;20443;-89
2023/03/05 02:55:48;;;;;;;19.50;11.13;;;;;;;2.11;100.00;151907.84;4998446;28;20452;-89
2023/03/05 02:58:16;;;;;;;19.83;10.50;;;;;;;2.10;100.00;151905.25;4994672;28;20435;-89
2023/03/05 03:00:43;;;;;;;16.43;9.93;;;;;;;2.12;100.00;151911.69;4997612;28;20487;-89
2023/03/05 03:03:10;;;;;;;17.10;11.17;;;;;;;2.12;100.00;151911.69;5005338;28;20450;-89
2023/03/05 03:05:37;;;;;;;15.07;10.40;;;;;;;2.12;100.00;151911.69;5003664;28;20474;-89
2023/03/05 03:08:04;;;;;;;17.67;10.13;;;;;;;2.12;100.00;151911.69;5012815;28;20546;-89
2023/03/05 03:10:31;;;;;;;16.83;10.40;;;;;;;2.14;100.00;151915.56;4989346;28;20467;-89
2023/03/05 03:12:59;;;;;;;15.13;9.33;;;;;;;2.14;100.00;151915.56;5014139;28;20460;-89
2023/03/05 03:15:26;;;;;;;17.60;10.33;;;;;;;2.14;100.00;151916.84;5017608;28;20450;-89
2023/03/05 03:17:52;;;;;;;15.90;9.70;;;;;;;2.15;100.00;151919.41;5048148;28;20431;-89
2023/03/05 03:20:20;;;;;;;17.70;10.20;;;;;;;2.16;100.00;151920.69;5030667;28;20536;-89
2023/03/05 03:22:47;;;;;;;17.40;10.60;;;;;;;2.18;100.00;151927.13;5006888;28;20536;-89
2023/03/05 03:25:15;;;;;;;15.73;10.00;;;;;;;2.16;100.00;151921.97;5040244;28;20800;-89
2023/03/05 03:27:41;;;;;;;16.63;9.23;;;;;;;2.17;100.00;151924.53;5010200;28;20507;-89
2023/03/05 03:30:11;;;;;;;14.63;9.27;;;;;;;2.18;100.00;151925.81;5046623;28;20555;-89
2023/03/05 03:32:38;;;;;;;15.13;8.47;;;;;;;2.18;100.00;151927.13;5039524;28;20451;-89
2023/03/05 03:35:06;;;;;;;19.03;9.90;;;;;;;2.18;100.00;151927.13;5017000;28;20459;-89
2023/03/05 03:37:33;;;;;;;15.63;9.40;;;;;;;2.18;100.00;151927.13;4985195;28;20505;-89
2023/03/05 03:40:00;;;;;;;14.33;9.60;;;;;;;2.18;100.00;151927.13;4994700;28;20486;-89
2023/03/05 03:42:27;;;;;;;16.17;9.43;;;;;;;2.20;100.00;151930.94;5012949;28;20680;-89
2023/03/05 03:44:54;;;;;;;16.50;9.17;;;;;;;2.19;100.00;151928.41;5027715;28;20461;-89
2023/03/05 03:47:22;;;;;;;15.80;9.43;;;;;;;2.19;100.00;151929.72;5037961;28;20479;-89
2023/03/05 03:49:49;;;;;;;14.63;8.50;;;;;;;2.18;100.00;151925.81;5011865;28;20521;-89
2023/03/05 03:52:16;;;;;;;16.30;8.90;;;;;;;2.17;100.00;151924.53;5004391;28;20543;-89
2023/03/05 03:54:43;;;;;;;16.50;9.10;;;;;;;2.18;100.00;151925.81;5038944;28;20456;-89
2023/03/05 03:57:09;;;;;;;14.90;8.27;;;;;;;2.17;100.00;151924.53;5000535;28;20782;-89
2023/03/05 03:59:36;;;;;;;15.17;8.03;;;;;;;2.19;100.00;151929.72;5000172;28;20482;-89
2023/03/05 04:02:03;;;;;;;15.90;9.37;;;;;;;2.19;100.00;151928.41;4996308;28;20962;-89
2023/03/05 04:04:31;;;;;;;16.20;9.10;;;;;;;2.19;100.00;151929.72;4991763;28;20458;-89
2023/03/05 04:06:58;;;;;;;18.53;9.07;;;;;;;2.19;100.00;151929.72;5026296;28;20552;-89
2023/03/05 04:09:25;;;;;;;13.20;9.57;;;;;;;2.18;100.00;151927.13;5010379;28;20499;-90
2023/03/05 04:11:51;;;;;;;14.90;9.00;;;;;;;2.17;100.00;151924.53;5014091;28;20432;-89
2023/03/05 04:14:18;;;;;;;14.67;9.00;;;;;;;2.18;100.00;151927.13;5023592;28;20520;-90
2023/03/05 04:16:45;;;;;;;16.30;9.23;;;;;;;2.18;100.00;151925.81;4993348;28;20459;-89
2023/03/05 04:19:12;;;;;;;18.00;9.50;;;;;;;2.18;100.00;151927.13;5031071;28;20528;-89
2023/03/05 04:21:40;;;;;;;15.20;9.40;;;;;;;2.17;100.00;151924.53;5014230;28;20510;-89
2023/03/05 04:24:08;;;;;;;16.23;10.03;;;;;;;2.18;100.00;151925.81;5023054;28;20482;-89
2023/03/05 04:26:35;;;;;;;15.70;9.00;;;;;;;2.16;100.00;151921.97;5003809;28;20467;-89
2023/03/05 04:29:02;;;;;;;15.43;8.97;;;;;;;2.17;100.00;151924.53;4996439;28;20438;-89
2023/03/05 04:31:29;;;;;;;16.70;8.67;;;;;;;2.17;100.00;151923.28;4999981;28;20453;-89
2023/03/05 04:33:55;;;;;;;15.03;8.87;;;;;;;2.19;100.00;151929.72;5024657;28;20466;-89
2023/03/05 04:36:22;;;;;;;15.00;9.47;;;;;;;2.17;100.00;151924.53;5007934;28;20447;-89
2023/03/05 04:38:51;;;;;;;14.17;9.13;;;;;;;2.19;100.00;151929.72;5015373;28;20509;-89
2023/03/05 04:41:18;;;;;;;13.67;8.27;;;;;;;2.19;100.00;151929.72;5020970;28;20825;-89
2023/03/05 04:43:44;;;;;;;14.30;9.57;;;;;;;2.20;100.00;151932.25;5038146;28;20490;-88
2023/03/05 04:46:11;;;;;;;17.77;9.57;;;;;;;2.20;100.00;151932.25;5017254;28;20488;-89
2023/03/05 04:48:38;;;;;;;14.67;9.73;;;;;;;2.20;100.00;151932.25;5028846;28;20456;-90
2023/03/05 04:51:05;;;;;;;13.77;8.30;;;;;;;2.20;100.00;151930.94;4994056;28;22250;-90
2023/03/05 04:53:32;;;;;;;17.27;8.90;;;;;;;2.18;100.00;151927.13;5025096;28;20453;-90
2023/03/05 04:56:01;;;;;;;15.33;8.70;;;;;;;2.18;100.00;151927.13;4991568;28;20459;-90
2023/03/05 04:58:28;;;;;;;17.23;10.00;;;;;;;2.18;100.00;151927.13;4990721;28;20964;-90
2023/03/05 05:00:55;;;;;;;16.70;9.33;;;;;;;2.19;100.00;151929.72;5012914;28;20491;-90
2023/03/05 05:03:21;;;;;;;15.93;8.87;;;;;;;2.20;100.00;151930.94;4999160;28;20450;-90
2023/03/05 05:05:54;;;;;;;14.87;9.23;;;;;;;2.20;100.00;151930.94;5013074;28;20459;-90
2023/03/05 05:08:21;;;;;;;14.63;9.40;;;;;;;2.20;100.00;151932.25;4990313;28;20905;-90
2023/03/05 05:10:55;;;;;;;16.93;9.53;;;;;;;2.21;100.00;151934.84;4989589;28;20951;-90
2023/03/05 05:13:24;;;;;;;16.30;8.80;;;;;;;2.19;100.00;151929.72;5017959;28;20454;-90
2023/03/05 05:15:50;;;;;;;14.00;9.03;;;;;;;2.18;100.00;151927.13;4991251;28;20463;-90
2023/03/05 05:18:17;;;;;;;16.70;10.40;;;;;;;2.19;100.00;151929.72;5028154;28;20551;-90
2023/03/05 05:20:44;;;;;;;18.10;9.53;;;;;;;2.19;100.00;151929.72;5037335;28;20478;-89
2023/03/05 05:23:11;;;;;;;15.03;9.80;;;;;;;2.18;100.00;151927.13;5016266;28;20454;-89
2023/03/05 05:25:38;;;;;;;21.40;11.07;;;;;;;2.19;100.00;151929.72;5008903;28;20458;-89
2023/03/05 05:28:05;;;;;;;20.37;10.30;;;;;;;2.20;100.00;151932.25;4984124;28;20462;-89
2023/03/05 05:30:33;;;;;;;20.17;10.50;;;;;;;2.21;100.00;151934.84;4997082;28;20476;-89
2023/03/05 05:33:00;;;;;;;17.50;10.90;;;;;;;2.19;100.00;151928.41;4993720;28;20454;-90
2023/03/05 05:35:27;;;;;;;17.43;10.17;;;;;;;2.19;100.00;151929.72;4996054;28;20468;-89
2023/03/05 05:37:53;;;;;;;17.43;9.70;;;;;;;2.18;100.00;151925.81;4993155;28;20457;-89
2023/03/05 05:40:20;;;;;;;14.40;10.17;;;;;;;2.20;100.00;151932.25;5007010;28;20534;-89
2023/03/05 05:42:47;;;;;;;20.63;12.30;;;;;;;2.21;100.00;151934.84;5006855;28;20480;-90
2023/03/05 05:45:14;;;;;;;16.80;9.30;;;;;;;2.23;100.00;151939.97;5010559;28;20938;-88
2023/03/05 05:47:42;;;;;;;16.60;10.60;;;;;;;2.21;100.00;151933.53;4992369;28;20454;-89
2023/03/05 05:50:10;;;;;;;18.00;11.10;;;;;;;2.19;100.00;151928.41;5022296;28;20554;-89
2023/03/05 05:52:37;;;;;;;17.10;10.07;;;;;;;2.29;100.00;151955.41;4980464;28;20448;-89
2023/03/05 05:55:05;;;;;;;19.30;10.87;;;;;;;2.26;100.00;151946.41;5020516;28;20459;-89
2023/03/05 05:57:32;;;;;;;19.50;11.20;;;;;;;2.29;100.00;151955.41;4999401;28;20544;-89
2023/03/05 05:59:59;;;;;;;18.13;11.83;;;;;;;2.32;100.00;151963.13;4979973;28;20492;-89
2023/03/05 06:02:26;;;;;;;16.97;9.67;;;;;;;2.33;100.00;151964.44;5008595;28;20486;-89
2023/03/05 06:04:57;;;;;;;13.50;10.00;;;;;;;2.29;100.00;151954.13;4989306;28;20474;-88
2023/03/05 06:07:25;;;;;;;18.80;11.60;;;;;;;2.25;100.00;151945.09;5019126;28;20447;-88
2023/03/05 06:09:52;;;;;;;15.67;10.23;;;;;;;2.22;100.00;151937.44;4990812;28;20520;-88
2023/03/05 06:12:22;;;;;;;16.60;11.50;;;;;;;2.29;100.00;151955.41;5022929;28;20459;-89
2023/03/05 06:14:55;;;;;;;18.20;10.67;;;;;;;2.28;100.00;151952.81;4993874;28;20512;-89
2023/03/05 06:17:23;;;;;;;19.37;11.87;;;;;;;2.28;100.00;151951.53;5019164;28;20455;-89
2023/03/05 06:19:50;;;;;;;21.23;12.13;;;;;;;2.40;100.00;151983.72;4990270;28;20480;-89
2023/03/05 06:22:21;;;;;;;18.97;12.67;;;;;;;2.35;100.00;151970.84;4987753;28;20471;-89
2023/03/05 06:24:48;;;;;;;17.47;11.33;;;;;;;2.36;100.00;151972.09;5023764;28;20876;-89
2023/03/05 06:27:15;;;;;;;18.10;11.80;;;;;;;2.43;100.00;151991.44;5020516;28;20456;-89
2023/03/05 06:29:42;;;;;;;20.80;12.53;;;;;;;2.39;100.00;151981.13;4984314;28;20468;-89
2023/03/05 06:32:09;;;;;;;19.23;11.33;;;;;;;2.38;100.00;151977.28;4986369;28;20455;-89
2023/03/05 06:34:36;;;;;;;18.73;11.53;;;;;;;2.41;100.00;151986.25;4987501;28;20924;-89
2023/03/05 06:37:03;;;;;;;17.40;12.77;;;;;;;2.41;100.00;151984.97;4980935;28;20488;-89
2023/03/05 06:39:32;;;;;;;17.23;11.83;;;;;;;2.38;100.00;151978.53;5024350;28;20454;-89
2023/03/05 06:41:59;;;;;;;19.77;11.70;;;;;;;2.43;100.00;151991.44;4986868;28;20531;-88
2023/03/05 06:44:26;;;;;;;15.73;12.27;;;;;;;2.43;100.00;151991.44;5023695;28;20440;-89
2023/03/05 06:46:53;;;;;;;21.37;12.77;;;;;;;2.43;100.00;151991.44;4982990;28;21380;-89
2023/03/05 06:49:20;;;;;;;18.70;11.33;;;;;;;2.39;100.00;151981.13;4983390;28;20536;-89
2023/03/05 06:51:47;;;;;;;18.50;12.13;;;;;;;2.40;100.00;151983.72;5039206;28;20539;-88
2023/03/05 06:54:16;;;;;;;20.93;13.70;;;;;;;2.43;100.00;151990.13;5020508;28;20456;-89
2023/03/05 06:56:46;;;;;;;18.27;11.67;;;;;;;2.40;100.00;151983.72;5038625;28;20896;-88
2023/03/05 06:59:15;;;;;;;22.70;12.40;;;;;;;2.45;100.00;151996.56;4995127;28;20456;-89
2023/03/05 07:01:42;;;;;;;16.83;11.37;;;;;;;2.47;100.00;152000.41;5001084;28;20997;-88
2023/03/05 07:04:08;;;;;;;21.60;12.33;;;;;;;2.46;100.00;151999.09;4988925;28;20459;-88
2023/03/05 07:06:38;;;;;;;21.03;13.07;;;;;;;2.41;100.00;151986.25;4988133;28;20467;-88
2023/03/05 07:09:07;;;;;;;20.20;12.17;;;;;;;2.42;100.00;151988.84;5037615;28;20466;-89
2023/03/05 07:11:34;;;;;;;22.40;12.73;;;;;;;2.42;100.00;151988.84;5036054;28;20474;-88
2023/03/05 07:14:02;;;;;;;19.53;11.80;;;;;;;2.45;100.00;151996.56;5022095;28;20512;-89
2023/03/05 07:16:31;;;;;;;18.00;12.40;;;;;;;2.46;100.00;151999.09;5023074;28;20562;-90
2023/03/05 07:18:59;;;;;;;21.90;12.83;;;;;;;2.49;100.00;152004.28;5038187;28;20467;-90
2023/03/05 07:21:28;;;;;;;18.90;11.57;;;;;;;2.49;100.00;152004.28;5033238;28;20467;-89
2023/03/05 07:23:56;;;;;;;22.70;12.60;;;;;;;2.53;100.00;152015.84;5014784;28;20697;-88
2023/03/05 07:26:23;;;;;;;20.67;12.33;;;;;;;2.50;100.00;152006.84;5005001;28;20819;-89
2023/03/05 07:28:50;;;;;;;20.10;13.30;;;;;;;2.48;100.00;152003.00;5024944;28;20811;-89
2023/03/05 07:31:19;;;;;;;19.13;13.10;;;;;;;2.49;100.00;152004.28;4991834;28;20575;-90
2023/03/05 07:33:47;;;;;;;18.27;12.30;;;;;;;2.53;100.00;152015.84;5026616;28;20964;-89
2023/03/05 07:36:14;;;;;;;20.57;12.23;;;;;;;2.78;100.00;152078.88;4999242;28;20530;-89
2023/03/05 07:38:41;;;;;;;23.63;13.47;;;;;;;2.73;100.00;152065.97;5024560;28;20450;-90
2023/03/05 07:41:10;;;;;;;17.73;11.83;;;;;;;2.73;100.00;152065.97;5040736;28;20476;-89
2023/03/05 07:43:38;;;;;;;18.40;12.20;;;;;;;2.67;100.00;152050.56;5026467;28;20536;-90
2023/03/05 07:46:05;;;;;;;17.63;11.33;;;;;;;2.66;100.00;152048.00;5024498;28;20524;-90
2023/03/05 07:48:34;;;;;;;20.90;12.90;;;;;;;2.66;100.00;152048.00;5044659;28;20464;-90
2023/03/05 07:51:02;;;;;;;18.87;12.50;;;;;;;2.65;100.00;152045.44;5028444;28;20454;-87
2023/03/05 07:53:29;;;;;;;15.77;11.47;;;;;;;2.81;100.00;152086.56;5044444;28;20450;-89
2023/03/05 07:55:56;;;;;;;17.67;12.03;;;;;;;2.99;100.00;152134.16;4996277;28;20816;-89
2023/03/05 07:58:23;;;;;;;18.40;11.43;;;;;;;2.91;100.00;152113.56;4991776;28;20487;-89
2023/03/05 08:00:50;;;;;;;16.77;11.20;;;;;;;2.87;100.00;152103.31;5037340;28;21000;-89
2023/03/05 08:03:17;;;;;;;20.20;12.43;;;;;;;2.85;100.00;152096.88;4991668;28;20452;-89
2023/03/05 08:05:45;;;;;;;16.20;10.43;;;;;;;2.99;100.00;152132.91;4992411;28;20446;-89
2023/03/05 08:08:12;;;;;;;19.70;12.10;;;;;;;2.99;100.00;152132.91;4990457;28;20453;-90
2023/03/05 08:10:39;;;;;;;16.30;10.63;;;;;;;2.92;100.00;152114.88;5021604;28;20752;-89
2023/03/05 08:13:06;;;;;;;17.83;11.30;;;;;;;3.03;100.00;152144.47;5003264;28;20461;-90
2023/03/05 08:15:33;;;;;;;17.70;12.30;;;;;;;3.17;98.95;152179.22;5021508;28;20461;-89
2023/03/05 08:18:00;;;;;;;19.43;10.27;;;;;;;3.14;99.19;152171.50;5009229;28;20457;-89
2023/03/05 08:20:27;;;;;;;16.73;10.97;;;;;;;3.01;100.00;152138.06;5006917;28;20479;-89
2023/03/05 08:22:55;;;;;;;17.67;10.77;;;;;;;3.05;100.00;152149.63;4984037;28;20562;-90
2023/03/05 08:25:22;;;;;;;18.07;11.80;;;;;;;3.06;99.60;152152.22;4985192;28;20937;-89
2023/03/05 08:27:49;;;;;;;18.77;12.37;;;;;;;3.00;100.00;152135.47;5004009;28;20450;-90
2023/03/05 08:30:18;;;;;;;16.30;10.67;;;;;;;2.96;100.00;152126.50;5007950;28;20542;-90
2023/03/05 08:32:45;;;;;;;19.23;12.23;;;;;;;3.09;99.60;152158.66;5023461;28;20469;-90
2023/03/05 08:35:12;;;;;;;17.90;11.50;;;;;;;3.25;97.96;152199.81;4996429;28;20499;-91
2023/03/05 08:37:39;;;;;;;16.00;10.40;;;;;;;3.36;96.08;152228.09;5041955;28;20575;-90
2023/03/05 08:40:09;;;;;;;14.70;10.40;;;;;;;3.40;95.62;152237.13;5003539;28;20464;-90
2023/03/05 08:42:35;;;;;;;19.20;10.53;;;;;;;3.23;96.93;152194.63;5007620;28;20587;-90
2023/03/05 08:45:02;;;;;;;16.77;11.83;;;;;;;3.11;98.71;152163.78;5001405;28;20448;-90
2023/03/05 08:47:29;;;;;;;19.40;13.30;;;;;;;3.11;100.00;152163.78;4987264;28;20484;-89
2023/03/05 08:49:57;;;;;;;16.97;11.43;;;;;;;3.34;97.74;152221.66;5022037;28;20470;-89
2023/03/05 08:52:26;;;;;;;15.80;10.63;;;;;;;3.37;95.85;152229.41;5007832;28;20451;-90
2023/03/05 08:54:54;;;;;;;20.70;12.50;;;;;;;3.46;94.66;152252.59;4990087;28;20511;-90
2023/03/05 08:57:22;;;;;;;17.67;11.70;;;;;;;3.32;98.40;152217.81;5037123;28;20491;-90
2023/03/05 08:59:49;;;;;;;19.77;12.50;;;;;;;3.25;97.84;152199.81;5008411;28;20512;-90
2023/03/05 09:02:15;;;;;;;18.37;12.50;;;;;;;3.22;99.19;152192.09;4989375;28;20484;-89
2023/03/05 09:04:42;;;;;;;16.20;11.20;;;;;;;3.23;98.60;152193.41;5023524;28;20445;-90
2023/03/05 09:07:10;;;;;;;18.70;11.97;;;;;;;3.25;99.86;152199.81;4988544;28;20453;-90
2023/03/05 09:09:37;;;;;;;19.10;13.17;;;;;;;3.27;100.00;152204.97;5024159;28;20536;-90
2023/03/05 09:12:04;;;;;;;18.87;12.83;;;;;;;3.30;99.03;152211.41;4989709;28;20471;-90
2023/03/05 09:14:32;;;;;;;17.03;10.73;;;;;;;3.32;98.26;152217.81;5022709;28;20578;-90
2023/03/05 09:16:59;;;;;;;17.93;11.07;;;;;;;3.54;94.18;152274.47;5040940;28;20464;-90
2023/03/05 09:19:26;;;;;;;19.97;12.40;;;;;;;3.76;91.84;152329.78;5023825;28;20481;-90
2023/03/05 09:21:53;;;;;;;17.57;10.87;;;;;;;3.89;90.62;152362.00;5029191;28;20481;-90
2023/03/05 09:24:20;;;;;;;18.70;11.83;;;;;;;3.86;90.31;152354.28;5001137;28;20445;-90
2023/03/05 09:26:46;;;;;;;19.67;11.77;;;;;;;3.76;92.06;152328.53;4998248;28;20472;-90
2023/03/05 09:29:13;;;;;;;24.63;13.57;;;;;;;3.54;94.01;152274.47;4994903;28;20452;-90
2023/03/05 09:31:42;;;;;;;16.77;11.53;;;;;;;3.50;96.53;152264.16;5023266;28;20970;-90
2023/03/05 09:34:11;;;;;;;17.73;12.13;;;;;;;3.55;95.06;152277.03;5023787;28;20465;-90
2023/03/05 09:36:37;;;;;;;21.90;16.17;;;;;;;3.53;94.40;152271.88;5019821;28;20451;-91
2023/03/05 09:39:05;;;;;;;20.30;13.20;;;;;;;3.78;92.09;152333.69;5007825;28;20453;-90
2023/03/05 09:41:39;;;;;;;19.63;13.20;;;;;;;3.67;93.69;152306.66;5036332;28;20525;-90
2023/03/05 09:47:08;;;;;;;17.00;10.87;;;;;;;3.65;94.40;152302.75;5023274;28;20464;-88
2023/03/05 09:49:45;;;;;;;15.50;10.83;;;;;;;3.65;93.93;152302.75;5045899;28;20439;-90
2023/03/05 09:52:16;;;;;;;16.50;11.83;;;;;;;3.64;92.95;152300.22;5024257;28;20491;-89
2023/03/05 09:54:45;;;;;;;17.93;12.57;;;;;;;3.85;91.21;152351.69;5043031;28;20441;-91
2023/03/05 09:57:17;;;;;;;15.30;10.40;;;;;;;3.82;88.83;152345.25;5019164;28;20460;-90
2023/03/05 09:59:47;;;;;;;18.30;12.20;;;;;;;3.77;88.99;152332.38;5042715;28;20504;-91
2023/03/05 10:02:19;;;;;;;19.50;11.93;;;;;;;3.71;89.59;152315.69;5057779;28;20480;-91
2023/03/05 10:04:49;;;;;;;17.43;12.23;;;;;;;3.80;91.18;152338.81;5020785;28;20445;-91
2023/03/05 10:07:21;;;;;;;17.73;11.37;;;;;;;3.98;88.85;152385.16;5041704;28;20464;-91
2023/03/05 10:09:51;;;;;;;15.70;11.30;;;;;;;4.09;87.97;152413.50;5005871;28;20435;-90
2023/03/05 10:12:27;;;;;;;14.83;10.83;;;;;;;3.92;90.37;152371.00;5000980;28;20461;-90
2023/03/05 10:14:54;;;;;;;15.63;11.60;;;;;;;3.86;92.41;152355.56;4998631;28;20462;-91
2023/03/05 10:17:42;;;;;;;24.27;14.73;;;;;;;4.03;88.17;152398.03;5031307;28;20796;-90
2023/03/05 10:20:24;;;;;;;19.17;12.30;;;;;;;4.24;86.94;152452.13;4993319;28;20450;-91
2023/03/05 10:23:15;;;;;;;20.37;12.57;;;;;;;4.03;87.36;152398.03;4993961;28;20514;-91
2023/03/05 10:25:55;;;;;;;19.57;11.93;;;;;;;3.96;87.23;152380.03;5016052;28;20526;-91
2023/03/05 10:28:25;;;;;;;18.30;11.83;;;;;;;3.82;90.56;152345.25;5038345;28;20488;-92
2023/03/05 10:31:17;;;;;;;18.23;12.23;;;;;;;3.91;89.04;152368.47;5004836;28;20463;-91
2023/03/05 10:33:57;;;;;;;18.63;12.87;;;;;;;3.87;90.19;152356.81;5023920;28;20459;-92
2023/03/05 10:36:32;;;;;;;21.60;12.40;;;;;;;3.91;90.38;152368.47;5040324;28;20472;-91
2023/03/05 10:39:39;;;;;;;18.70;12.20;;;;;;;4.05;87.47;152403.22;5007518;28;20505;-91
2023/03/05 10:42:14;;;;;;;17.67;11.93;;;;;;;3.84;89.52;152350.41;4984152;28;20479;-91
2023/03/05 10:44:44;;;;;;;19.60;12.70;;;;;;;3.73;90.36;152322.13;5026547;28;20944;-92
2023/03/05 10:47:15;;;;;;;18.20;12.53;;;;;;;3.73;90.30;152322.13;5019693;28;20487;-92
2023/03/05 10:49:49;;;;;;;19.90;12.70;;;;;;;3.82;90.65;152343.97;5029817;28;20451;-92
2023/03/05 10:52:18;;;;;;;18.53;12.70;;;;;;;3.97;90.10;152382.63;5037327;28;20532;-91
2023/03/05 10:54:45;;;;;;;19.00;12.57;;;;;;;4.03;91.48;152398.03;5025228;28;20451;-92
2023/03/05 10:57:17;;;;;;;16.63;12.63;;;;;;;4.02;90.04;152395.50;4990736;28;20459;-92
2023/03/05 10:59:48;;;;;;;18.83;12.80;;;;;;;4.23;89.38;152449.59;5051508;28;20866;-91
2023/03/05 11:02:14;;;;;;;18.03;11.47;;;;;;;4.28;87.70;152462.47;4993144;28;20505;-92
2023/03/05 11:04:41;;;;;;;18.67;13.07;;;;;;;4.20;89.15;152441.84;5008716;28;20483;-92
2023/03/05 11:07:31;;;;;;;16.47;11.63;;;;;;;4.38;86.62;152488.22;5004980;28;20457;-92
2023/03/05 11:10:14;;;;;;;20.20;12.17;;;;;;;4.37;87.89;152485.63;5007580;28;20519;-92
2023/03/05 11:12:41;;;;;;;17.07;11.83;;;;;;;4.24;90.33;152453.44;5026757;28;20453;-91
2023/03/05 11:15:25;;;;;;;21.13;14.33;;;;;;;4.30;90.00;152467.59;4993468;28;20480;-92
2023/03/05 11:18:05;;;;;;;17.00;11.70;;;;;;;4.23;90.97;152449.59;5009523;28;20460;-92
2023/03/05 11:20:34;;;;;;;17.47;12.33;;;;;;;4.22;94.59;152447.00;4988206;28;20441;-93